sensor_id;sensor_type;location;lat;lon;timestamp;P1;durP1;ratioP1;P2;durP2;ratioP2
3637;SDS011;1835;50.068;8.154;2023-03-19T00:01:03;3.23;;;1.57;;
3637;SDS011;1835;50.068;8.154;2023-03-19T00:03:32;1.57;;;1.47;;
3637;SDS011;1835;50.068;8.154;2023-03-19T00:06:01;1.87;;;1.50;;
3637;SDS011;1835;50.068;8.154;2023-03-19T00:08:30;2.93;;;1.77;;
3637;SDS011;1835;50.068;8.154;2023-03-19T00:10:59;11.43;;;1.40;;
3637;SDS011;1835;50.068;8.154;2023-03-19T00:13:33;1.53;;;1.20;;
3637;SDS011;1835;50.068;8.154;2023-03-19T00:16:01;3.63;;;1.00;;
3637;SDS011;1835;50.068;8.154;2023-03-19T00:18:29;2.93;;;1.77;;
3637;SDS011;1835;50.068;8.154;2023-03-19T00:20:57;1.40;;;1.30;;
3637;SDS011;1835;50.068;8.154;2023-03-19T00:23:26;14.57;;;1.90;;
3637;SDS011;1835;50.068;8.154;2023-03-19T00:25:54;1.53;;;1.43;;
3637;SDS011;1835;50.068;8.154;2023-03-19T00:28:24;5.17;;;1.60;;
3637;SDS011;1835;50.068;8.154;2023-03-19T00:30:53;5.57;;;1.40;;
3637;SDS011;1835;50.068;8.154;2023-03-19T00:33:21;2.40;;;1.07;;
3637;SDS011;1835;50.068;8.154;2023-03-19T00:35:50;6.13;;;1.63;;
3637;SDS011;1835;50.068;8.154;2023-03-19T00:38:19;2.80;;;1.43;;
3637;SDS011;1835;50.068;8.154;2023-03-19T00:40:47;7.03;;;2.00;;
3637;SDS011;1835;50.068;8.154;2023-03-19T00:43:15;7.30;;;1.67;;
3637;SDS011;1835;50.068;8.154;2023-03-19T00:45:45;3.80;;;1.50;;
3637;SDS011;1835;50.068;8.154;2023-03-19T00:48:13;2.60;;;1.33;;
3637;SDS011;1835;50.068;8.154;2023-03-19T00:50:41;5.80;;;2.17;;
3637;SDS011;1835;50.068;8.154;2023-03-19T00:53:09;4.33;;;2.27;;
3637;SDS011;1835;50.068;8.154;2023-03-19T00:55:37;7.50;;;2.00;;
3637;SDS011;1835;50.068;8.154;2023-03-19T00:58:05;7.57;;;1.50;;
3637;SDS011;1835;50.068;8.154;2023-03-19T01:00:35;1.80;;;1.70;;
3637;SDS011;1835;50.068;8.154;2023-03-19T01:03:05;6.73;;;1.47;;
3637;SDS011;1835;50.068;8.154;2023-03-19T01:05:34;4.93;;;2.03;;
3637;SDS011;1835;50.068;8.154;2023-03-19T01:08:02;5.57;;;1.53;;
3637;SDS011;1835;50.068;8.154;2023-03-19T01:10:32;1.73;;;1.10;;
3637;SDS011;1835;50.068;8.154;2023-03-19T01:13:00;2.73;;;1.70;;
3637;SDS011;1835;50.068;8.154;2023-03-19T01:15:28;7.43;;;1.63;;
3637;SDS011;1835;50.068;8.154;2023-03-19T01:17:57;7.53;;;1.60;;
3637;SDS011;1835;50.068;8.154;2023-03-19T01:20:26;1.47;;;1.40;;
3637;SDS011;1835;50.068;8.154;2023-03-19T01:22:54;1.23;;;1.13;;
3637;SDS011;1835;50.068;8.154;2023-03-19T01:25:22;3.50;;;1.80;;
3637;SDS011;1835;50.068;8.154;2023-03-19T01:27:51;4.43;;;1.87;;
3637;SDS011;1835;50.068;8.154;2023-03-19T01:30:20;1.73;;;1.47;;
3637;SDS011;1835;50.068;8.154;2023-03-19T01:32:48;1.37;;;1.27;;
3637;SDS011;1835;50.068;8.154;2023-03-19T01:35:16;2.87;;;1.87;;
3637;SDS011;1835;50.068;8.154;2023-03-19T01:37:47;7.30;;;1.60;;
3637;SDS011;1835;50.068;8.154;2023-03-19T01:40:15;1.57;;;1.20;;
3637;SDS011;1835;50.068;8.154;2023-03-19T01:42:53;2.83;;;1.90;;
3637;SDS011;1835;50.068;8.154;2023-03-19T01:45:30;2.17;;;1.97;;
3637;SDS011;1835;50.068;8.154;2023-03-19T01:48:00;5.40;;;2.43;;
3637;SDS011;1835;50.068;8.154;2023-03-19T01:50:30;4.60;;;3.03;;
3637;SDS011;1835;50.068;8.154;2023-03-19T01:53:08;3.73;;;2.10;;
3637;SDS011;1835;50.068;8.154;2023-03-19T01:55:38;9.00;;;2.50;;
3637;SDS011;1835;50.068;8.154;2023-03-19T01:58:07;3.57;;;1.50;;
3637;SDS011;1835;50.068;8.154;2023-03-19T02:00:37;5.20;;;1.97;;
3637;SDS011;1835;50.068;8.154;2023-03-19T02:03:05;3.70;;;2.23;;
3637;SDS011;1835;50.068;8.154;2023-03-19T02:05:34;2.70;;;1.73;;
3637;SDS011;1835;50.068;8.154;2023-03-19T02:08:05;4.17;;;1.93;;
3637;SDS011;1835;50.068;8.154;2023-03-19T02:10:37;7.93;;;2.50;;
3637;SDS011;1835;50.068;8.154;2023-03-19T02:13:06;2.33;;;1.63;;
3637;SDS011;1835;50.068;8.154;2023-03-19T02:15:34;2.77;;;1.80;;
3637;SDS011;1835;50.068;8.154;2023-03-19T02:18:03;5.50;;;1.70;;
3637;SDS011;1835;50.068;8.154;2023-03-19T02:20:33;1.87;;;1.60;;
3637;SDS011;1835;50.068;8.154;2023-03-19T02:23:13;5.37;;;1.30;;
3637;SDS011;1835;50.068;8.154;2023-03-19T02:25:53;2.20;;;1.73;;
3637;SDS011;1835;50.068;8.154;2023-03-19T02:28:27;2.07;;;1.70;;
3637;SDS011;1835;50.068;8.154;2023-03-19T02:30:57;4.10;;;1.67;;
3637;SDS011;1835;50.068;8.154;2023-03-19T02:33:25;3.10;;;1.53;;
3637;SDS011;1835;50.068;8.154;2023-03-19T02:35:53;1.10;;;1.10;;
3637;SDS011;1835;50.068;8.154;2023-03-19T02:38:22;7.97;;;1.37;;
3637;SDS011;1835;50.068;8.154;2023-03-19T02:40:54;2.53;;;2.33;;
3637;SDS011;1835;50.068;8.154;2023-03-19T02:43:27;3.03;;;2.17;;
3637;SDS011;1835;50.068;8.154;2023-03-19T02:45:56;2.37;;;1.20;;
3637;SDS011;1835;50.068;8.154;2023-03-19T02:48:25;5.90;;;2.60;;
3637;SDS011;1835;50.068;8.154;2023-03-19T02:50:53;1.67;;;1.30;;
3637;SDS011;1835;50.068;8.154;2023-03-19T02:53:21;4.03;;;1.83;;
3637;SDS011;1835;50.068;8.154;2023-03-19T02:55:50;2.60;;;1.27;;
3637;SDS011;1835;50.068;8.154;2023-03-19T02:58:19;2.20;;;1.43;;
3637;SDS011;1835;50.068;8.154;2023-03-19T03:00:48;6.17;;;2.20;;
3637;SDS011;1835;50.068;8.154;2023-03-19T03:03:17;6.60;;;2.47;;
3637;SDS011;1835;50.068;8.154;2023-03-19T03:05:45;4.73;;;1.73;;
3637;SDS011;1835;50.068;8.154;2023-03-19T03:08:13;3.80;;;1.10;;
3637;SDS011;1835;50.068;8.154;2023-03-19T03:10:41;5.70;;;2.30;;
3637;SDS011;1835;50.068;8.154;2023-03-19T03:13:09;6.10;;;1.60;;
3637;SDS011;1835;50.068;8.154;2023-03-19T03:15:38;7.47;;;1.57;;
3637;SDS011;1835;50.068;8.154;2023-03-19T03:18:06;2.90;;;1.70;;
3637;SDS011;1835;50.068;8.154;2023-03-19T03:20:34;15.53;;;1.63;;
3637;SDS011;1835;50.068;8.154;2023-03-19T03:23:02;5.30;;;0.97;;
3637;SDS011;1835;50.068;8.154;2023-03-19T03:25:31;6.07;;;1.40;;
3637;SDS011;1835;50.068;8.154;2023-03-19T03:27:59;2.87;;;1.27;;
3637;SDS011;1835;50.068;8.154;2023-03-19T03:30:27;4.63;;;1.40;;
3637;SDS011;1835;50.068;8.154;2023-03-19T03:32:56;1.53;;;1.30;;
3637;SDS011;1835;50.068;8.154;2023-03-19T03:35:24;1.53;;;1.43;;
3637;SDS011;1835;50.068;8.154;2023-03-19T03:37:52;4.20;;;1.60;;
3637;SDS011;1835;50.068;8.154;2023-03-19T03:40:20;9.30;;;1.40;;
3637;SDS011;1835;50.068;8.154;2023-03-19T03:42:48;5.10;;;1.40;;
3637;SDS011;1835;50.068;8.154;2023-03-19T03:45:17;1.60;;;1.50;;
3637;SDS011;1835;50.068;8.154;2023-03-19T03:47:45;3.20;;;1.37;;
3637;SDS011;1835;50.068;8.154;2023-03-19T03:50:15;4.03;;;1.23;;
3637;SDS011;1835;50.068;8.154;2023-03-19T03:52:43;1.47;;;1.37;;
3637;SDS011;1835;50.068;8.154;2023-03-19T03:55:11;6.03;;;1.37;;
3637;SDS011;1835;50.068;8.154;2023-03-19T03:57:39;6.57;;;1.80;;
3637;SDS011;1835;50.068;8.154;2023-03-19T04:00:08;3.60;;;1.50;;
3637;SDS011;1835;50.068;8.154;2023-03-19T04:02:37;3.90;;;2.07;;
3637;SDS011;1835;50.068;8.154;2023-03-19T04:05:06;4.77;;;1.70;;
3637;SDS011;1835;50.068;8.154;2023-03-19T04:07:36;1.57;;;1.27;;
3637;SDS011;1835;50.068;8.154;2023-03-19T04:10:05;3.07;;;1.10;;
3637;SDS011;1835;50.068;8.154;2023-03-19T04:12:35;2.73;;;2.23;;
3637;SDS011;1835;50.068;8.154;2023-03-19T04:15:04;2.33;;;1.60;;
3637;SDS011;1835;50.068;8.154;2023-03-19T04:17:34;1.50;;;1.40;;
3637;SDS011;1835;50.068;8.154;2023-03-19T04:20:04;4.10;;;1.53;;
3637;SDS011;1835;50.068;8.154;2023-03-19T04:22:33;4.53;;;1.70;;
3637;SDS011;1835;50.068;8.154;2023-03-19T04:25:03;3.10;;;1.70;;
3637;SDS011;1835;50.068;8.154;2023-03-19T04:27:33;1.43;;;1.30;;
3637;SDS011;1835;50.068;8.154;2023-03-19T04:30:01;12.47;;;1.80;;
3637;SDS011;1835;50.068;8.154;2023-03-19T04:32:31;4.80;;;1.63;;
3637;SDS011;1835;50.068;8.154;2023-03-19T04:35:00;1.83;;;1.40;;
3637;SDS011;1835;50.068;8.154;2023-03-19T04:37:29;6.60;;;1.73;;
3637;SDS011;1835;50.068;8.154;2023-03-19T04:39:57;5.07;;;1.60;;
3637;SDS011;1835;50.068;8.154;2023-03-19T04:42:27;6.20;;;1.97;;
3637;SDS011;1835;50.068;8.154;2023-03-19T04:44:55;1.20;;;1.20;;
3637;SDS011;1835;50.068;8.154;2023-03-19T04:47:23;3.13;;;1.50;;
3637;SDS011;1835;50.068;8.154;2023-03-19T04:49:51;1.60;;;1.50;;
3637;SDS011;1835;50.068;8.154;2023-03-19T04:52:21;3.33;;;1.70;;
3637;SDS011;1835;50.068;8.154;2023-03-19T04:54:49;1.40;;;1.30;;
3637;SDS011;1835;50.068;8.154;2023-03-19T04:57:17;3.23;;;1.23;;
3637;SDS011;1835;50.068;8.154;2023-03-19T04:59:47;1.87;;;1.30;;
3637;SDS011;1835;50.068;8.154;2023-03-19T05:02:15;10.43;;;1.60;;
3637;SDS011;1835;50.068;8.154;2023-03-19T05:04:44;2.73;;;1.50;;
3637;SDS011;1835;50.068;8.154;2023-03-19T05:07:12;4.10;;;1.77;;
3637;SDS011;1835;50.068;8.154;2023-03-19T05:09:40;1.93;;;1.77;;
3637;SDS011;1835;50.068;8.154;2023-03-19T05:12:09;2.23;;;1.97;;
3637;SDS011;1835;50.068;8.154;2023-03-19T05:14:38;9.03;;;2.30;;
3637;SDS011;1835;50.068;8.154;2023-03-19T05:17:07;2.20;;;2.00;;
3637;SDS011;1835;50.068;8.154;2023-03-19T05:19:36;3.90;;;2.20;;
3637;SDS011;1835;50.068;8.154;2023-03-19T05:22:04;11.30;;;2.10;;
3637;SDS011;1835;50.068;8.154;2023-03-19T05:24:32;7.10;;;2.50;;
3637;SDS011;1835;50.068;8.154;2023-03-19T05:27:01;2.70;;;1.80;;
3637;SDS011;1835;50.068;8.154;2023-03-19T05:29:29;4.20;;;2.30;;
3637;SDS011;1835;50.068;8.154;2023-03-19T05:31:57;4.67;;;2.07;;
3637;SDS011;1835;50.068;8.154;2023-03-19T05:34:29;3.63;;;1.83;;
3637;SDS011;1835;50.068;8.154;2023-03-19T05:36:58;4.07;;;2.73;;
3637;SDS011;1835;50.068;8.154;2023-03-19T05:39:26;3.40;;;2.53;;
3637;SDS011;1835;50.068;8.154;2023-03-19T05:41:54;8.00;;;4.37;;
3637;SDS011;1835;50.068;8.154;2023-03-19T05:44:22;13.97;;;2.90;;
3637;SDS011;1835;50.068;8.154;2023-03-19T05:46:50;14.47;;;3.07;;
3637;SDS011;1835;50.068;8.154;2023-03-19T05:49:18;8.47;;;3.17;;
3637;SDS011;1835;50.068;8.154;2023-03-19T05:51:48;8.57;;;3.03;;
3637;SDS011;1835;50.068;8.154;2023-03-19T05:54:16;5.53;;;2.30;;
3637;SDS011;1835;50.068;8.154;2023-03-19T05:56:44;3.07;;;2.63;;
3637;SDS011;1835;50.068;8.154;2023-03-19T05:59:12;7.13;;;2.63;;
3637;SDS011;1835;50.068;8.154;2023-03-19T06:01:40;12.63;;;2.77;;
3637;SDS011;1835;50.068;8.154;2023-03-19T06:04:08;12.50;;;2.80;;
3637;SDS011;1835;50.068;8.154;2023-03-19T06:06:36;4.47;;;2.90;;
3637;SDS011;1835;50.068;8.154;2023-03-19T06:09:06;4.97;;;2.30;;
3637;SDS011;1835;50.068;8.154;2023-03-19T06:11:34;3.33;;;2.67;;
3637;SDS011;1835;50.068;8.154;2023-03-19T06:14:04;4.87;;;1.90;;
3637;SDS011;1835;50.068;8.154;2023-03-19T06:16:32;4.70;;;2.70;;
3637;SDS011;1835;50.068;8.154;2023-03-19T06:19:01;4.90;;;2.77;;
3637;SDS011;1835;50.068;8.154;2023-03-19T06:21:29;6.30;;;3.63;;
3637;SDS011;1835;50.068;8.154;2023-03-19T06:23:57;9.87;;;1.67;;
3637;SDS011;1835;50.068;8.154;2023-03-19T06:26:26;3.50;;;1.87;;
3637;SDS011;1835;50.068;8.154;2023-03-19T06:28:54;5.50;;;1.60;;
3637;SDS011;1835;50.068;8.154;2023-03-19T06:31:22;2.80;;;1.73;;
3637;SDS011;1835;50.068;8.154;2023-03-19T06:33:51;4.03;;;1.87;;
3637;SDS011;1835;50.068;8.154;2023-03-19T06:36:19;9.43;;;2.27;;
3637;SDS011;1835;50.068;8.154;2023-03-19T06:38:47;5.73;;;1.73;;
3637;SDS011;1835;50.068;8.154;2023-03-19T06:41:15;4.33;;;1.90;;
3637;SDS011;1835;50.068;8.154;2023-03-19T06:43:44;1.63;;;1.50;;
3637;SDS011;1835;50.068;8.154;2023-03-19T06:46:12;8.97;;;1.83;;
3637;SDS011;1835;50.068;8.154;2023-03-19T06:48:40;3.33;;;1.50;;
3637;SDS011;1835;50.068;8.154;2023-03-19T06:51:09;4.90;;;1.67;;
3637;SDS011;1835;50.068;8.154;2023-03-19T06:53:37;5.67;;;1.60;;
3637;SDS011;1835;50.068;8.154;2023-03-19T06:56:07;3.27;;;1.50;;
3637;SDS011;1835;50.068;8.154;2023-03-19T06:58:35;1.20;;;1.10;;
3637;SDS011;1835;50.068;8.154;2023-03-19T07:01:05;2.23;;;2.03;;
3637;SDS011;1835;50.068;8.154;2023-03-19T07:03:34;2.87;;;1.40;;
3637;SDS011;1835;50.068;8.154;2023-03-19T07:06:03;3.10;;;1.20;;
3637;SDS011;1835;50.068;8.154;2023-03-19T07:08:32;3.73;;;1.60;;
3637;SDS011;1835;50.068;8.154;2023-03-19T07:11:02;3.90;;;1.40;;
3637;SDS011;1835;50.068;8.154;2023-03-19T07:13:31;1.73;;;1.40;;
3637;SDS011;1835;50.068;8.154;2023-03-19T07:15:59;1.10;;;1.10;;
3637;SDS011;1835;50.068;8.154;2023-03-19T07:18:28;20.57;;;1.73;;
3637;SDS011;1835;50.068;8.154;2023-03-19T07:20:56;4.33;;;1.33;;
3637;SDS011;1835;50.068;8.154;2023-03-19T07:23:24;1.90;;;1.63;;
3637;SDS011;1835;50.068;8.154;2023-03-19T07:25:53;2.10;;;1.00;;
3637;SDS011;1835;50.068;8.154;2023-03-19T07:28:21;5.13;;;1.43;;
3637;SDS011;1835;50.068;8.154;2023-03-19T07:30:49;3.20;;;1.87;;
3637;SDS011;1835;50.068;8.154;2023-03-19T07:33:18;4.33;;;1.33;;
3637;SDS011;1835;50.068;8.154;2023-03-19T07:35:48;11.17;;;1.73;;
3637;SDS011;1835;50.068;8.154;2023-03-19T07:38:17;2.53;;;2.07;;
3637;SDS011;1835;50.068;8.154;2023-03-19T07:40:45;5.83;;;1.57;;
3637;SDS011;1835;50.068;8.154;2023-03-19T07:43:26;4.73;;;1.77;;
3637;SDS011;1835;50.068;8.154;2023-03-19T07:45:54;3.50;;;1.33;;
3637;SDS011;1835;50.068;8.154;2023-03-19T07:48:23;4.50;;;1.57;;
3637;SDS011;1835;50.068;8.154;2023-03-19T07:50:52;3.13;;;1.43;;
3637;SDS011;1835;50.068;8.154;2023-03-19T07:53:20;16.17;;;1.90;;
3637;SDS011;1835;50.068;8.154;2023-03-19T07:55:49;4.93;;;1.90;;
3637;SDS011;1835;50.068;8.154;2023-03-19T07:58:17;3.40;;;1.30;;
3637;SDS011;1835;50.068;8.154;2023-03-19T08:00:45;2.57;;;1.27;;
3637;SDS011;1835;50.068;8.154;2023-03-19T08:03:13;1.90;;;1.57;;
3637;SDS011;1835;50.068;8.154;2023-03-19T08:05:42;5.90;;;1.77;;
3637;SDS011;1835;50.068;8.154;2023-03-19T08:08:11;1.50;;;1.40;;
3637;SDS011;1835;50.068;8.154;2023-03-19T08:10:40;3.13;;;2.03;;
3637;SDS011;1835;50.068;8.154;2023-03-19T08:13:08;5.00;;;1.87;;
3637;SDS011;1835;50.068;8.154;2023-03-19T08:15:36;2.70;;;1.57;;
3637;SDS011;1835;50.068;8.154;2023-03-19T08:18:04;1.93;;;1.90;;
3637;SDS011;1835;50.068;8.154;2023-03-19T08:20:32;4.00;;;2.53;;
3637;SDS011;1835;50.068;8.154;2023-03-19T08:23:01;14.23;;;3.47;;
3637;SDS011;1835;50.068;8.154;2023-03-19T08:25:30;11.00;;;4.80;;
3637;SDS011;1835;50.068;8.154;2023-03-19T08:27:59;6.60;;;4.10;;
3637;SDS011;1835;50.068;8.154;2023-03-19T08:30:27;6.23;;;3.60;;
3637;SDS011;1835;50.068;8.154;2023-03-19T08:32:55;6.73;;;4.03;;
3637;SDS011;1835;50.068;8.154;2023-03-19T08:35:24;9.70;;;4.77;;
3637;SDS011;1835;50.068;8.154;2023-03-19T08:37:53;11.77;;;6.57;;
3637;SDS011;1835;50.068;8.154;2023-03-19T08:40:22;8.53;;;4.23;;
3637;SDS011;1835;50.068;8.154;2023-03-19T08:42:51;4.90;;;3.20;;
3637;SDS011;1835;50.068;8.154;2023-03-19T08:45:21;4.20;;;3.27;;
3637;SDS011;1835;50.068;8.154;2023-03-19T08:47:49;3.73;;;2.13;;
3637;SDS011;1835;50.068;8.154;2023-03-19T08:50:18;2.77;;;2.57;;
3637;SDS011;1835;50.068;8.154;2023-03-19T08:52:46;8.63;;;2.37;;
3637;SDS011;1835;50.068;8.154;2023-03-19T08:55:14;2.53;;;2.33;;
3637;SDS011;1835;50.068;8.154;2023-03-19T08:57:43;3.87;;;2.40;;
3637;SDS011;1835;50.068;8.154;2023-03-19T09:00:13;5.93;;;2.63;;
3637;SDS011;1835;50.068;8.154;2023-03-19T09:02:42;5.90;;;2.30;;
3637;SDS011;1835;50.068;8.154;2023-03-19T09:05:11;5.40;;;2.90;;
3637;SDS011;1835;50.068;8.154;2023-03-19T09:07:39;7.40;;;3.00;;
3637;SDS011;1835;50.068;8.154;2023-03-19T09:10:07;7.83;;;3.40;;
3637;SDS011;1835;50.068;8.154;2023-03-19T09:12:36;7.70;;;2.73;;
3637;SDS011;1835;50.068;8.154;2023-03-19T09:15:05;10.73;;;3.13;;
3637;SDS011;1835;50.068;8.154;2023-03-19T09:17:35;4.63;;;3.60;;
3637;SDS011;1835;50.068;8.154;2023-03-19T09:20:04;6.07;;;2.57;;
3637;SDS011;1835;50.068;8.154;2023-03-19T09:22:33;3.40;;;2.60;;
3637;SDS011;1835;50.068;8.154;2023-03-19T09:25:01;9.07;;;2.93;;
3637;SDS011;1835;50.068;8.154;2023-03-19T09:27:30;4.47;;;3.17;;
3637;SDS011;1835;50.068;8.154;2023-03-19T09:29:58;4.73;;;3.10;;
3637;SDS011;1835;50.068;8.154;2023-03-19T09:32:26;9.33;;;4.00;;
3637;SDS011;1835;50.068;8.154;2023-03-19T09:34:56;4.73;;;3.00;;
3637;SDS011;1835;50.068;8.154;2023-03-19T09:37:24;6.03;;;3.23;;
3637;SDS011;1835;50.068;8.154;2023-03-19T09:39:52;2.43;;;2.23;;
3637;SDS011;1835;50.068;8.154;2023-03-19T09:42:25;5.50;;;2.70;;
3637;SDS011;1835;50.068;8.154;2023-03-19T09:45:12;7.93;;;3.10;;
3637;SDS011;1835;50.068;8.154;2023-03-19T09:47:43;8.87;;;3.80;;
3637;SDS011;1835;50.068;8.154;2023-03-19T09:50:14;4.23;;;2.90;;
3637;SDS011;1835;50.068;8.154;2023-03-19T09:52:46;4.33;;;3.13;;
3637;SDS011;1835;50.068;8.154;2023-03-19T09:55:24;5.90;;;3.03;;
3637;SDS011;1835;50.068;8.154;2023-03-19T09:58:04;4.73;;;2.97;;
3637;SDS011;1835;50.068;8.154;2023-03-19T10:00:46;6.50;;;3.10;;
3637;SDS011;1835;50.068;8.154;2023-03-19T10:03:24;7.97;;;3.57;;
3637;SDS011;1835;50.068;8.154;2023-03-19T10:09:03;3.73;;;2.93;;
3637;SDS011;1835;50.068;8.154;2023-03-19T10:11:54;3.77;;;2.20;;
3637;SDS011;1835;50.068;8.154;2023-03-19T10:14:40;5.10;;;3.30;;
3637;SDS011;1835;50.068;8.154;2023-03-19T10:17:28;5.53;;;2.97;;
3637;SDS011;1835;50.068;8.154;2023-03-19T10:20:02;3.57;;;2.07;;
3637;SDS011;1835;50.068;8.154;2023-03-19T10:22:36;3.33;;;2.77;;
3637;SDS011;1835;50.068;8.154;2023-03-19T10:25:09;6.93;;;2.87;;
3637;SDS011;1835;50.068;8.154;2023-03-19T10:27:42;4.30;;;3.00;;
3637;SDS011;1835;50.068;8.154;2023-03-19T10:30:13;6.60;;;2.87;;
3637;SDS011;1835;50.068;8.154;2023-03-19T10:32:43;2.40;;;2.30;;
3637;SDS011;1835;50.068;8.154;2023-03-19T10:35:20;4.30;;;2.03;;
3637;SDS011;1835;50.068;8.154;2023-03-19T10:37:53;7.53;;;2.70;;
3637;SDS011;1835;50.068;8.154;2023-03-19T10:40:23;9.60;;;4.37;;
3637;SDS011;1835;50.068;8.154;2023-03-19T10:43:04;5.07;;;3.20;;
3637;SDS011;1835;50.068;8.154;2023-03-19T10:45:39;7.20;;;3.40;;
3637;SDS011;1835;50.068;8.154;2023-03-19T10:48:10;3.30;;;2.00;;
3637;SDS011;1835;50.068;8.154;2023-03-19T10:50:44;2.33;;;2.20;;
3637;SDS011;1835;50.068;8.154;2023-03-19T10:53:28;3.70;;;1.90;;
3637;SDS011;1835;50.068;8.154;2023-03-19T10:56:02;4.27;;;2.73;;
3637;SDS011;1835;50.068;8.154;2023-03-19T10:58:33;12.93;;;5.43;;
3637;SDS011;1835;50.068;8.154;2023-03-19T11:01:06;3.00;;;1.90;;
3637;SDS011;1835;50.068;8.154;2023-03-19T11:03:38;3.23;;;2.37;;
3637;SDS011;1835;50.068;8.154;2023-03-19T11:06:17;4.97;;;2.70;;
3637;SDS011;1835;50.068;8.154;2023-03-19T11:09:11;3.53;;;2.07;;
3637;SDS011;1835;50.068;8.154;2023-03-19T11:11:57;3.80;;;2.67;;
3637;SDS011;1835;50.068;8.154;2023-03-19T11:14:35;6.20;;;2.10;;
3637;SDS011;1835;50.068;8.154;2023-03-19T11:17:15;3.17;;;2.10;;
3637;SDS011;1835;50.068;8.154;2023-03-19T11:19:50;3.03;;;2.57;;
3637;SDS011;1835;50.068;8.154;2023-03-19T11:22:20;3.70;;;2.73;;
3637;SDS011;1835;50.068;8.154;2023-03-19T11:24:53;3.30;;;2.10;;
3637;SDS011;1835;50.068;8.154;2023-03-19T11:27:27;4.60;;;2.30;;
3637;SDS011;1835;50.068;8.154;2023-03-19T11:29:56;5.17;;;2.40;;
3637;SDS011;1835;50.068;8.154;2023-03-19T11:35:32;1.90;;;1.80;;
3637;SDS011;1835;50.068;8.154;2023-03-19T11:38:05;5.13;;;2.93;;
3637;SDS011;1835;50.068;8.154;2023-03-19T11:40:46;3.17;;;2.20;;
3637;SDS011;1835;50.068;8.154;2023-03-19T11:43:36;5.10;;;2.40;;
3637;SDS011;1835;50.068;8.154;2023-03-19T11:46:24;6.47;;;2.50;;
3637;SDS011;1835;50.068;8.154;2023-03-19T11:49:08;5.00;;;2.23;;
3637;SDS011;1835;50.068;8.154;2023-03-19T11:52:13;3.87;;;2.83;;
3637;SDS011;1835;50.068;8.154;2023-03-19T11:54:58;6.23;;;2.83;;
3637;SDS011;1835;50.068;8.154;2023-03-19T11:57:48;2.50;;;2.00;;
3637;SDS011;1835;50.068;8.154;2023-03-19T12:00:34;4.83;;;2.40;;
3637;SDS011;1835;50.068;8.154;2023-03-19T12:03:17;2.03;;;1.93;;
3637;SDS011;1835;50.068;8.154;2023-03-19T12:06:33;9.57;;;2.60;;
3637;SDS011;1835;50.068;8.154;2023-03-19T12:09:08;5.13;;;2.33;;
3637;SDS011;1835;50.068;8.154;2023-03-19T12:11:47;4.30;;;2.60;;
3637;SDS011;1835;50.068;8.154;2023-03-19T12:14:26;4.70;;;2.43;;
3637;SDS011;1835;50.068;8.154;2023-03-19T12:20:12;6.60;;;3.00;;
3637;SDS011;1835;50.068;8.154;2023-03-19T12:22:58;4.43;;;2.70;;
3637;SDS011;1835;50.068;8.154;2023-03-19T12:25:39;3.13;;;2.23;;
3637;SDS011;1835;50.068;8.154;2023-03-19T12:28:31;3.73;;;2.50;;
3637;SDS011;1835;50.068;8.154;2023-03-19T12:31:14;11.13;;;5.07;;
3637;SDS011;1835;50.068;8.154;2023-03-19T12:33:59;8.43;;;4.17;;
3637;SDS011;1835;50.068;8.154;2023-03-19T12:36:49;3.40;;;3.10;;
3637;SDS011;1835;50.068;8.154;2023-03-19T12:39:33;9.93;;;3.63;;
3637;SDS011;1835;50.068;8.154;2023-03-19T12:42:06;5.30;;;3.53;;
3637;SDS011;1835;50.068;8.154;2023-03-19T12:44:40;6.43;;;3.90;;
3637;SDS011;1835;50.068;8.154;2023-03-19T12:47:13;6.17;;;3.83;;
3637;SDS011;1835;50.068;8.154;2023-03-19T12:49:48;5.30;;;3.40;;
3637;SDS011;1835;50.068;8.154;2023-03-19T12:52:21;6.40;;;4.13;;
3637;SDS011;1835;50.068;8.154;2023-03-19T12:54:54;12.63;;;3.97;;
3637;SDS011;1835;50.068;8.154;2023-03-19T12:57:30;9.33;;;5.73;;
3637;SDS011;1835;50.068;8.154;2023-03-19T13:00:05;7.40;;;4.23;;
3637;SDS011;1835;50.068;8.154;2023-03-19T13:02:39;11.67;;;4.93;;
3637;SDS011;1835;50.068;8.154;2023-03-19T13:05:15;7.93;;;3.10;;
3637;SDS011;1835;50.068;8.154;2023-03-19T13:07:54;8.80;;;4.37;;
3637;SDS011;1835;50.068;8.154;2023-03-19T13:10:26;8.03;;;4.40;;
3637;SDS011;1835;50.068;8.154;2023-03-19T13:12:57;11.37;;;3.83;;
3637;SDS011;1835;50.068;8.154;2023-03-19T13:15:44;6.57;;;3.10;;
3637;SDS011;1835;50.068;8.154;2023-03-19T13:18:19;2.43;;;2.33;;
3637;SDS011;1835;50.068;8.154;2023-03-19T13:21:02;3.93;;;2.60;;
3637;SDS011;1835;50.068;8.154;2023-03-19T13:23:44;5.60;;;3.30;;
3637;SDS011;1835;50.068;8.154;2023-03-19T13:26:16;3.43;;;2.90;;
3637;SDS011;1835;50.068;8.154;2023-03-19T13:28:52;3.07;;;2.80;;
3637;SDS011;1835;50.068;8.154;2023-03-19T13:31:26;6.57;;;3.10;;
3637;SDS011;1835;50.068;8.154;2023-03-19T13:34:02;5.10;;;3.43;;
3637;SDS011;1835;50.068;8.154;2023-03-19T13:36:35;5.40;;;2.20;;
3637;SDS011;1835;50.068;8.154;2023-03-19T13:39:10;3.73;;;3.27;;
3637;SDS011;1835;50.068;8.154;2023-03-19T13:41:46;3.20;;;2.30;;
3637;SDS011;1835;50.068;8.154;2023-03-19T13:44:23;2.60;;;2.40;;
3637;SDS011;1835;50.068;8.154;2023-03-19T13:47:02;4.23;;;2.27;;
3637;SDS011;1835;50.068;8.154;2023-03-19T13:50:21;5.23;;;2.53;;
3637;SDS011;1835;50.068;8.154;2023-03-19T13:52:53;1.77;;;1.40;;
3637;SDS011;1835;50.068;8.154;2023-03-19T13:55:49;3.43;;;2.10;;
3637;SDS011;1835;50.068;8.154;2023-03-19T13:58:21;2.40;;;1.70;;
3637;SDS011;1835;50.068;8.154;2023-03-19T14:01:09;2.37;;;2.17;;
3637;SDS011;1835;50.068;8.154;2023-03-19T14:03:40;3.13;;;2.50;;
3637;SDS011;1835;50.068;8.154;2023-03-19T14:06:28;4.70;;;2.67;;
3637;SDS011;1835;50.068;8.154;2023-03-19T14:09:01;2.20;;;2.00;;
3637;SDS011;1835;50.068;8.154;2023-03-19T14:11:31;1.83;;;1.73;;
3637;SDS011;1835;50.068;8.154;2023-03-19T14:14:02;1.83;;;1.73;;
3637;SDS011;1835;50.068;8.154;2023-03-19T14:16:33;2.53;;;2.33;;
3637;SDS011;1835;50.068;8.154;2023-03-19T14:19:10;2.00;;;1.80;;
3637;SDS011;1835;50.068;8.154;2023-03-19T14:22:00;2.83;;;1.53;;
3637;SDS011;1835;50.068;8.154;2023-03-19T14:24:37;2.10;;;1.90;;
3637;SDS011;1835;50.068;8.154;2023-03-19T14:27:25;3.23;;;1.87;;
3637;SDS011;1835;50.068;8.154;2023-03-19T14:29:59;3.23;;;1.50;;
3637;SDS011;1835;50.068;8.154;2023-03-19T14:32:36;5.00;;;1.60;;
3637;SDS011;1835;50.068;8.154;2023-03-19T14:35:10;1.33;;;1.23;;
3637;SDS011;1835;50.068;8.154;2023-03-19T14:37:45;2.73;;;1.50;;
3637;SDS011;1835;50.068;8.154;2023-03-19T14:40:16;1.80;;;1.27;;
3637;SDS011;1835;50.068;8.154;2023-03-19T14:42:52;1.80;;;1.50;;
3637;SDS011;1835;50.068;8.154;2023-03-19T14:45:34;2.10;;;1.33;;
3637;SDS011;1835;50.068;8.154;2023-03-19T14:48:19;1.50;;;1.40;;
3637;SDS011;1835;50.068;8.154;2023-03-19T14:54:18;2.57;;;1.80;;
3637;SDS011;1835;50.068;8.154;2023-03-19T14:56:57;1.50;;;1.40;;
3637;SDS011;1835;50.068;8.154;2023-03-19T14:59:37;1.60;;;1.50;;
3637;SDS011;1835;50.068;8.154;2023-03-19T15:02:15;2.70;;;2.10;;
3637;SDS011;1835;50.068;8.154;2023-03-19T15:04:59;1.27;;;1.10;;
3637;SDS011;1835;50.068;8.154;2023-03-19T15:07:33;2.43;;;1.47;;
3637;SDS011;1835;50.068;8.154;2023-03-19T15:10:04;2.40;;;1.90;;
3637;SDS011;1835;50.068;8.154;2023-03-19T15:12:43;1.50;;;1.40;;
3637;SDS011;1835;50.068;8.154;2023-03-19T15:18:57;2.33;;;2.13;;
3637;SDS011;1835;50.068;8.154;2023-03-19T15:21:25;1.53;;;1.43;;
3637;SDS011;1835;50.068;8.154;2023-03-19T15:23:56;2.40;;;1.07;;
3637;SDS011;1835;50.068;8.154;2023-03-19T15:26:28;1.53;;;1.43;;
3637;SDS011;1835;50.068;8.154;2023-03-19T15:28:57;1.43;;;1.33;;
3637;SDS011;1835;50.068;8.154;2023-03-19T15:31:42;1.40;;;1.27;;
3637;SDS011;1835;50.068;8.154;2023-03-19T15:34:28;3.93;;;2.60;;
3637;SDS011;1835;50.068;8.154;2023-03-19T15:36:57;5.40;;;2.77;;
3637;SDS011;1835;50.068;8.154;2023-03-19T15:39:30;2.63;;;1.20;;
3637;SDS011;1835;50.068;8.154;2023-03-19T15:42:03;3.23;;;1.50;;
3637;SDS011;1835;50.068;8.154;2023-03-19T15:44:32;1.47;;;1.37;;
3637;SDS011;1835;50.068;8.154;2023-03-19T15:47:07;2.13;;;1.27;;
3637;SDS011;1835;50.068;8.154;2023-03-19T15:49:43;1.73;;;1.60;;
3637;SDS011;1835;50.068;8.154;2023-03-19T15:52:16;5.03;;;1.90;;
3637;SDS011;1835;50.068;8.154;2023-03-19T15:54:47;1.80;;;1.10;;
3637;SDS011;1835;50.068;8.154;2023-03-19T15:57:15;1.43;;;1.33;;
3637;SDS011;1835;50.068;8.154;2023-03-19T15:59:44;4.30;;;2.20;;
3637;SDS011;1835;50.068;8.154;2023-03-19T16:02:14;2.23;;;2.03;;